sensor_id;sensor_type;location;lat;lon;timestamp;P1;durP1;ratioP1;P2;durP2;ratioP2
74503;SDS011;62988;55.776;37.544;2024-03-02T00:02:06;38.10;;;15.77;;
74503;SDS011;62988;55.776;37.544;2024-03-02T00:04:31;36.55;;;17.90;;
74503;SDS011;62988;55.776;37.544;2024-03-02T00:06:56;37.97;;;17.10;;
74503;SDS011;62988;55.776;37.544;2024-03-02T00:09:22;38.47;;;17.13;;
74503;SDS011;62988;55.776;37.544;2024-03-02T00:11:47;35.42;;;17.08;;
74503;SDS011;62988;55.776;37.544;2024-03-02T00:14:13;36.80;;;14.97;;
74503;SDS011;62988;55.776;37.544;2024-03-02T00:16:38;39.07;;;17.60;;
74503;SDS011;62988;55.776;37.544;2024-03-02T00:19:03;44.07;;;16.50;;
74503;SDS011;62988;55.776;37.544;2024-03-02T00:21:31;36.03;;;16.98;;
74503;SDS011;62988;55.776;37.544;2024-03-02T00:23:57;40.03;;;17.30;;
74503;SDS011;62988;55.776;37.544;2024-03-02T00:26:22;46.42;;;17.65;;
74503;SDS011;62988;55.776;37.544;2024-03-02T00:28:48;43.23;;;18.37;;
74503;SDS011;62988;55.776;37.544;2024-03-02T00:31:15;41.83;;;17.98;;
74503;SDS011;62988;55.776;37.544;2024-03-02T00:36:06;39.57;;;16.13;;
74503;SDS011;62988;55.776;37.544;2024-03-02T00:38:32;40.28;;;17.50;;
74503;SDS011;62988;55.776;37.544;2024-03-02T00:41:03;38.90;;;16.13;;
74503;SDS011;62988;55.776;37.544;2024-03-02T00:46:17;42.55;;;16.38;;
74503;SDS011;62988;55.776;37.544;2024-03-02T00:48:46;39.33;;;17.40;;
74503;SDS011;62988;55.776;37.544;2024-03-02T00:51:12;35.60;;;16.73;;
74503;SDS011;62988;55.776;37.544;2024-03-02T00:53:38;34.77;;;16.70;;
74503;SDS011;62988;55.776;37.544;2024-03-02T00:56:03;37.45;;;16.33;;
74503;SDS011;62988;55.776;37.544;2024-03-02T00:58:29;41.92;;;18.08;;
74503;SDS011;62988;55.776;37.544;2024-03-02T01:00:55;43.40;;;18.33;;
74503;SDS011;62988;55.776;37.544;2024-03-02T01:03:20;39.15;;;16.58;;
74503;SDS011;62988;55.776;37.544;2024-03-02T01:05:46;45.40;;;18.30;;
74503;SDS011;62988;55.776;37.544;2024-03-02T01:08:11;40.10;;;16.10;;
74503;SDS011;62988;55.776;37.544;2024-03-02T01:10:36;39.80;;;17.10;;
74503;SDS011;62988;55.776;37.544;2024-03-02T01:13:02;37.50;;;16.43;;
74503;SDS011;62988;55.776;37.544;2024-03-02T01:15:27;36.77;;;16.17;;
74503;SDS011;62988;55.776;37.544;2024-03-02T01:17:52;39.03;;;17.47;;
74503;SDS011;62988;55.776;37.544;2024-03-02T01:20:18;37.17;;;16.20;;
74503;SDS011;62988;55.776;37.544;2024-03-02T01:22:43;35.40;;;15.87;;
74503;SDS011;62988;55.776;37.544;2024-03-02T01:25:08;32.20;;;15.57;;
74503;SDS011;62988;55.776;37.544;2024-03-02T01:27:34;38.97;;;15.43;;
74503;SDS011;62988;55.776;37.544;2024-03-02T01:29:59;36.40;;;15.73;;
74503;SDS011;62988;55.776;37.544;2024-03-02T01:32:25;37.65;;;15.65;;
74503;SDS011;62988;55.776;37.544;2024-03-02T01:34:50;32.22;;;15.98;;
74503;SDS011;62988;55.776;37.544;2024-03-02T01:37:15;32.57;;;14.30;;
74503;SDS011;62988;55.776;37.544;2024-03-02T01:39:41;35.70;;;15.33;;
74503;SDS011;62988;55.776;37.544;2024-03-02T01:42:06;32.97;;;15.57;;
74503;SDS011;62988;55.776;37.544;2024-03-02T01:44:31;33.80;;;14.73;;
74503;SDS011;62988;55.776;37.544;2024-03-02T01:46:57;37.10;;;16.20;;
74503;SDS011;62988;55.776;37.544;2024-03-02T01:49:22;34.53;;;15.50;;
74503;SDS011;62988;55.776;37.544;2024-03-02T01:51:47;37.17;;;15.17;;
74503;SDS011;62988;55.776;37.544;2024-03-02T01:54:13;35.77;;;15.33;;
74503;SDS011;62988;55.776;37.544;2024-03-02T01:56:38;33.23;;;15.33;;
74503;SDS011;62988;55.776;37.544;2024-03-02T01:59:03;30.67;;;15.00;;
74503;SDS011;62988;55.776;37.544;2024-03-02T02:01:29;34.40;;;15.90;;
74503;SDS011;62988;55.776;37.544;2024-03-02T02:03:54;34.40;;;13.40;;
74503;SDS011;62988;55.776;37.544;2024-03-02T02:06:19;37.25;;;14.75;;
74503;SDS011;62988;55.776;37.544;2024-03-02T02:08:45;35.30;;;15.50;;
74503;SDS011;62988;55.776;37.544;2024-03-02T02:11:14;34.60;;;14.70;;
74503;SDS011;62988;55.776;37.544;2024-03-02T02:13:39;36.50;;;16.20;;
74503;SDS011;62988;55.776;37.544;2024-03-02T02:16:05;33.10;;;13.77;;
74503;SDS011;62988;55.776;37.544;2024-03-02T02:18:31;33.47;;;15.02;;
74503;SDS011;62988;55.776;37.544;2024-03-02T02:20:56;31.03;;;14.87;;
74503;SDS011;62988;55.776;37.544;2024-03-02T02:23:21;33.23;;;14.33;;
74503;SDS011;62988;55.776;37.544;2024-03-02T02:25:47;37.00;;;14.93;;
74503;SDS011;62988;55.776;37.544;2024-03-02T02:28:12;33.42;;;15.02;;
74503;SDS011;62988;55.776;37.544;2024-03-02T02:30:38;36.60;;;15.30;;
74503;SDS011;62988;55.776;37.544;2024-03-02T02:33:03;31.48;;;16.05;;
74503;SDS011;62988;55.776;37.544;2024-03-02T02:35:32;37.90;;;15.77;;
74503;SDS011;62988;55.776;37.544;2024-03-02T02:37:57;33.05;;;15.90;;
74503;SDS011;62988;55.776;37.544;2024-03-02T02:40:23;35.50;;;14.75;;
74503;SDS011;62988;55.776;37.544;2024-03-02T02:42:49;37.55;;;16.30;;
74503;SDS011;62988;55.776;37.544;2024-03-02T02:45:15;33.22;;;15.10;;
74503;SDS011;62988;55.776;37.544;2024-03-02T02:47:41;40.78;;;15.05;;
74503;SDS011;62988;55.776;37.544;2024-03-02T02:50:07;36.70;;;14.00;;
74503;SDS011;62988;55.776;37.544;2024-03-02T02:52:36;39.70;;;15.25;;
74503;SDS011;62988;55.776;37.544;2024-03-02T02:55:05;34.28;;;15.70;;
74503;SDS011;62988;55.776;37.544;2024-03-02T02:57:31;34.40;;;14.75;;
74503;SDS011;62988;55.776;37.544;2024-03-02T03:00:00;42.13;;;16.73;;
74503;SDS011;62988;55.776;37.544;2024-03-02T03:02:27;34.75;;;16.60;;
74503;SDS011;62988;55.776;37.544;2024-03-02T03:04:52;38.38;;;17.80;;
74503;SDS011;62988;55.776;37.544;2024-03-02T03:07:18;45.73;;;17.87;;
74503;SDS011;62988;55.776;37.544;2024-03-02T03:09:43;49.47;;;20.23;;
74503;SDS011;62988;55.776;37.544;2024-03-02T03:12:08;42.63;;;17.70;;
74503;SDS011;62988;55.776;37.544;2024-03-02T03:14:34;50.60;;;20.48;;
74503;SDS011;62988;55.776;37.544;2024-03-02T03:16:59;40.67;;;18.03;;
74503;SDS011;62988;55.776;37.544;2024-03-02T03:19:25;46.17;;;19.50;;
74503;SDS011;62988;55.776;37.544;2024-03-02T03:21:51;46.27;;;21.10;;
74503;SDS011;62988;55.776;37.544;2024-03-02T03:24:16;52.13;;;18.77;;
74503;SDS011;62988;55.776;37.544;2024-03-02T03:26:41;50.97;;;19.40;;
74503;SDS011;62988;55.776;37.544;2024-03-02T03:29:07;42.13;;;20.10;;
74503;SDS011;62988;55.776;37.544;2024-03-02T03:31:32;44.40;;;21.23;;
74503;SDS011;62988;55.776;37.544;2024-03-02T03:33:57;49.30;;;19.70;;
74503;SDS011;62988;55.776;37.544;2024-03-02T03:36:23;50.95;;;20.27;;
74503;SDS011;62988;55.776;37.544;2024-03-02T03:38:49;49.73;;;20.33;;
74503;SDS011;62988;55.776;37.544;2024-03-02T03:41:14;43.97;;;20.13;;
74503;SDS011;62988;55.776;37.544;2024-03-02T03:43:40;42.70;;;19.42;;
74503;SDS011;62988;55.776;37.544;2024-03-02T03:46:05;44.53;;;20.20;;
74503;SDS011;62988;55.776;37.544;2024-03-02T03:48:31;40.90;;;19.60;;
74503;SDS011;62988;55.776;37.544;2024-03-02T03:50:56;46.23;;;19.37;;
74503;SDS011;62988;55.776;37.544;2024-03-02T03:53:21;45.30;;;18.55;;
74503;SDS011;62988;55.776;37.544;2024-03-02T03:55:47;44.28;;;20.38;;
74503;SDS011;62988;55.776;37.544;2024-03-02T03:58:14;46.75;;;20.17;;
74503;SDS011;62988;55.776;37.544;2024-03-02T04:00:41;38.55;;;18.55;;
74503;SDS011;62988;55.776;37.544;2024-03-02T04:03:06;46.53;;;20.45;;
74503;SDS011;62988;55.776;37.544;2024-03-02T04:05:32;43.27;;;20.43;;
74503;SDS011;62988;55.776;37.544;2024-03-02T04:07:57;47.77;;;20.07;;
74503;SDS011;62988;55.776;37.544;2024-03-02T04:10:22;54.43;;;20.30;;
74503;SDS011;62988;55.776;37.544;2024-03-02T04:12:49;45.92;;;18.95;;
74503;SDS011;62988;55.776;37.544;2024-03-02T04:15:15;47.38;;;19.20;;
74503;SDS011;62988;55.776;37.544;2024-03-02T04:17:40;44.13;;;19.80;;
74503;SDS011;62988;55.776;37.544;2024-03-02T04:20:06;43.93;;;18.73;;
74503;SDS011;62988;55.776;37.544;2024-03-02T04:22:32;49.97;;;20.00;;
74503;SDS011;62988;55.776;37.544;2024-03-02T04:24:58;48.05;;;19.15;;
74503;SDS011;62988;55.776;37.544;2024-03-02T04:27:23;42.53;;;19.97;;
74503;SDS011;62988;55.776;37.544;2024-03-02T04:29:48;44.67;;;20.90;;
74503;SDS011;62988;55.776;37.544;2024-03-02T04:32:14;37.92;;;17.67;;
74503;SDS011;62988;55.776;37.544;2024-03-02T04:34:40;44.30;;;19.25;;
74503;SDS011;62988;55.776;37.544;2024-03-02T04:37:05;41.97;;;19.17;;
74503;SDS011;62988;55.776;37.544;2024-03-02T04:39:31;43.50;;;19.83;;
74503;SDS011;62988;55.776;37.544;2024-03-02T04:41:56;50.97;;;18.30;;
74503;SDS011;62988;55.776;37.544;2024-03-02T04:44:22;47.30;;;21.15;;
74503;SDS011;62988;55.776;37.544;2024-03-02T04:46:47;50.40;;;23.53;;
74503;SDS011;62988;55.776;37.544;2024-03-02T04:49:13;45.17;;;19.90;;
74503;SDS011;62988;55.776;37.544;2024-03-02T04:51:38;52.43;;;21.07;;
74503;SDS011;62988;55.776;37.544;2024-03-02T04:54:03;47.17;;;22.40;;
74503;SDS011;62988;55.776;37.544;2024-03-02T04:56:29;51.53;;;22.65;;
74503;SDS011;62988;55.776;37.544;2024-03-02T04:58:57;49.80;;;23.20;;
74503;SDS011;62988;55.776;37.544;2024-03-02T05:01:22;54.20;;;24.53;;
74503;SDS011;62988;55.776;37.544;2024-03-02T05:03:47;48.10;;;21.55;;
74503;SDS011;62988;55.776;37.544;2024-03-02T05:06:13;50.47;;;22.33;;
74503;SDS011;62988;55.776;37.544;2024-03-02T05:08:38;57.13;;;23.13;;
74503;SDS011;62988;55.776;37.544;2024-03-02T05:11:03;47.50;;;23.37;;
74503;SDS011;62988;55.776;37.544;2024-03-02T05:13:47;53.05;;;24.63;;
74503;SDS011;62988;55.776;37.544;2024-03-02T05:16:12;50.37;;;22.70;;
74503;SDS011;62988;55.776;37.544;2024-03-02T05:18:37;49.07;;;23.40;;
74503;SDS011;62988;55.776;37.544;2024-03-02T05:21:03;51.67;;;26.33;;
74503;SDS011;62988;55.776;37.544;2024-03-02T05:23:28;59.65;;;24.40;;
74503;SDS011;62988;55.776;37.544;2024-03-02T05:25:54;49.53;;;23.27;;
74503;SDS011;62988;55.776;37.544;2024-03-02T05:28:19;56.87;;;25.27;;
74503;SDS011;62988;55.776;37.544;2024-03-02T05:30:44;48.73;;;22.80;;
74503;SDS011;62988;55.776;37.544;2024-03-02T05:33:10;49.50;;;25.33;;
74503;SDS011;62988;55.776;37.544;2024-03-02T05:35:35;65.38;;;27.27;;
74503;SDS011;62988;55.776;37.544;2024-03-02T05:38:00;64.70;;;30.10;;
74503;SDS011;62988;55.776;37.544;2024-03-02T05:40:26;64.40;;;30.53;;
74503;SDS011;62988;55.776;37.544;2024-03-02T05:42:51;62.03;;;31.03;;
74503;SDS011;62988;55.776;37.544;2024-03-02T05:45:16;67.47;;;31.80;;
74503;SDS011;62988;55.776;37.544;2024-03-02T05:47:42;70.85;;;32.80;;
74503;SDS011;62988;55.776;37.544;2024-03-02T05:50:07;72.63;;;36.20;;
74503;SDS011;62988;55.776;37.544;2024-03-02T05:52:32;77.25;;;35.67;;
74503;SDS011;62988;55.776;37.544;2024-03-02T05:54:58;74.40;;;34.80;;
74503;SDS011;62988;55.776;37.544;2024-03-02T05:57:24;64.63;;;33.42;;
74503;SDS011;62988;55.776;37.544;2024-03-02T06:00:12;76.53;;;37.97;;
74503;SDS011;62988;55.776;37.544;2024-03-02T06:02:41;84.22;;;38.58;;
74503;SDS011;62988;55.776;37.544;2024-03-02T06:05:06;84.00;;;41.08;;
74503;SDS011;62988;55.776;37.544;2024-03-02T06:07:32;82.68;;;39.22;;
74503;SDS011;62988;55.776;37.544;2024-03-02T06:09:57;89.60;;;41.15;;
74503;SDS011;62988;55.776;37.544;2024-03-02T06:12:23;84.65;;;39.60;;
74503;SDS011;62988;55.776;37.544;2024-03-02T06:14:49;86.78;;;41.35;;
74503;SDS011;62988;55.776;37.544;2024-03-02T06:17:14;85.87;;;39.13;;
74503;SDS011;62988;55.776;37.544;2024-03-02T06:19:39;84.87;;;37.60;;
74503;SDS011;62988;55.776;37.544;2024-03-02T06:22:05;79.97;;;37.40;;
74503;SDS011;62988;55.776;37.544;2024-03-02T06:24:31;81.13;;;42.10;;
74503;SDS011;62988;55.776;37.544;2024-03-02T06:26:56;72.60;;;34.00;;
74503;SDS011;62988;55.776;37.544;2024-03-02T06:29:21;72.93;;;36.10;;
74503;SDS011;62988;55.776;37.544;2024-03-02T06:31:47;80.50;;;36.07;;
74503;SDS011;62988;55.776;37.544;2024-03-02T06:34:12;81.47;;;38.08;;
74503;SDS011;62988;55.776;37.544;2024-03-02T06:36:38;83.53;;;38.43;;
74503;SDS011;62988;55.776;37.544;2024-03-02T06:39:03;72.68;;;35.03;;
74503;SDS011;62988;55.776;37.544;2024-03-02T06:41:29;84.23;;;37.57;;
74503;SDS011;62988;55.776;37.544;2024-03-02T06:43:54;74.53;;;36.60;;
74503;SDS011;62988;55.776;37.544;2024-03-02T06:46:24;72.90;;;35.25;;
74503;SDS011;62988;55.776;37.544;2024-03-02T06:48:50;75.97;;;33.08;;
74503;SDS011;62988;55.776;37.544;2024-03-02T06:51:15;73.83;;;34.27;;
74503;SDS011;62988;55.776;37.544;2024-03-02T06:53:41;79.80;;;34.03;;
74503;SDS011;62988;55.776;37.544;2024-03-02T06:56:06;79.65;;;35.83;;
74503;SDS011;62988;55.776;37.544;2024-03-02T06:58:32;71.00;;;31.17;;
74503;SDS011;62988;55.776;37.544;2024-03-02T07:00:57;72.27;;;35.67;;
74503;SDS011;62988;55.776;37.544;2024-03-02T07:03:22;70.47;;;31.37;;
74503;SDS011;62988;55.776;37.544;2024-03-02T07:05:48;81.80;;;34.43;;
74503;SDS011;62988;55.776;37.544;2024-03-02T07:08:13;67.22;;;31.10;;
74503;SDS011;62988;55.776;37.544;2024-03-02T07:10:38;80.10;;;33.37;;
74503;SDS011;62988;55.776;37.544;2024-03-02T07:13:04;70.17;;;32.47;;
74503;SDS011;62988;55.776;37.544;2024-03-02T07:15:29;75.70;;;31.93;;
74503;SDS011;62988;55.776;37.544;2024-03-02T07:18:29;66.10;;;31.00;;
74503;SDS011;62988;55.776;37.544;2024-03-02T07:20:56;73.32;;;30.25;;
74503;SDS011;62988;55.776;37.544;2024-03-02T07:23:23;63.05;;;29.58;;
74503;SDS011;62988;55.776;37.544;2024-03-02T07:25:52;66.82;;;32.15;;
74503;SDS011;62988;55.776;37.544;2024-03-02T07:28:19;67.90;;;29.42;;
74503;SDS011;62988;55.776;37.544;2024-03-02T07:30:45;62.20;;;27.63;;
74503;SDS011;62988;55.776;37.544;2024-03-02T07:33:10;62.80;;;29.87;;
74503;SDS011;62988;55.776;37.544;2024-03-02T07:35:36;60.47;;;26.85;;
74503;SDS011;62988;55.776;37.544;2024-03-02T07:38:01;59.23;;;26.47;;
74503;SDS011;62988;55.776;37.544;2024-03-02T07:40:26;69.07;;;29.35;;
74503;SDS011;62988;55.776;37.544;2024-03-02T07:42:52;57.93;;;29.13;;
74503;SDS011;62988;55.776;37.544;2024-03-02T07:45:17;64.53;;;29.80;;
74503;SDS011;62988;55.776;37.544;2024-03-02T07:47:42;58.93;;;27.10;;
74503;SDS011;62988;55.776;37.544;2024-03-02T07:50:08;55.77;;;26.37;;
74503;SDS011;62988;55.776;37.544;2024-03-02T07:52:34;60.90;;;28.00;;
74503;SDS011;62988;55.776;37.544;2024-03-02T07:54:59;60.35;;;27.83;;
74503;SDS011;62988;55.776;37.544;2024-03-02T07:57:24;56.40;;;27.63;;
74503;SDS011;62988;55.776;37.544;2024-03-02T07:59:50;63.72;;;29.88;;
74503;SDS011;62988;55.776;37.544;2024-03-02T08:02:15;62.13;;;28.33;;
74503;SDS011;62988;55.776;37.544;2024-03-02T08:04:41;52.70;;;24.97;;
74503;SDS011;62988;55.776;37.544;2024-03-02T08:07:06;63.95;;;28.73;;
74503;SDS011;62988;55.776;37.544;2024-03-02T08:09:31;56.20;;;26.60;;
74503;SDS011;62988;55.776;37.544;2024-03-02T08:11:57;55.13;;;23.58;;
74503;SDS011;62988;55.776;37.544;2024-03-02T08:14:23;57.47;;;28.23;;
74503;SDS011;62988;55.776;37.544;2024-03-02T08:16:48;57.88;;;26.75;;
74503;SDS011;62988;55.776;37.544;2024-03-02T08:19:14;56.43;;;27.87;;
74503;SDS011;62988;55.776;37.544;2024-03-02T08:21:39;59.58;;;25.88;;
74503;SDS011;62988;55.776;37.544;2024-03-02T08:24:05;58.30;;;27.48;;
74503;SDS011;62988;55.776;37.544;2024-03-02T08:26:30;54.72;;;25.98;;
74503;SDS011;62988;55.776;37.544;2024-03-02T08:28:57;58.47;;;27.92;;
74503;SDS011;62988;55.776;37.544;2024-03-02T08:31:22;54.70;;;25.10;;
74503;SDS011;62988;55.776;37.544;2024-03-02T08:33:48;54.10;;;24.87;;
74503;SDS011;62988;55.776;37.544;2024-03-02T08:36:13;58.15;;;26.77;;
74503;SDS011;62988;55.776;37.544;2024-03-02T08:38:39;52.72;;;23.80;;
74503;SDS011;62988;55.776;37.544;2024-03-02T08:41:04;50.03;;;22.30;;
74503;SDS011;62988;55.776;37.544;2024-03-02T08:43:29;52.80;;;26.10;;
74503;SDS011;62988;55.776;37.544;2024-03-02T08:45:55;58.97;;;23.77;;
74503;SDS011;62988;55.776;37.544;2024-03-02T08:48:20;57.13;;;25.83;;
74503;SDS011;62988;55.776;37.544;2024-03-02T08:50:46;50.17;;;24.40;;
74503;SDS011;62988;55.776;37.544;2024-03-02T08:53:11;48.85;;;24.40;;
74503;SDS011;62988;55.776;37.544;2024-03-02T08:55:36;54.08;;;23.45;;
74503;SDS011;62988;55.776;37.544;2024-03-02T08:58:02;50.13;;;24.87;;
74503;SDS011;62988;55.776;37.544;2024-03-02T09:00:27;48.78;;;23.38;;
74503;SDS011;62988;55.776;37.544;2024-03-02T09:02:53;51.63;;;23.50;;
74503;SDS011;62988;55.776;37.544;2024-03-02T09:05:19;50.03;;;24.08;;
74503;SDS011;62988;55.776;37.544;2024-03-02T09:07:44;55.55;;;26.95;;
74503;SDS011;62988;55.776;37.544;2024-03-02T09:10:09;56.87;;;25.37;;
74503;SDS011;62988;55.776;37.544;2024-03-02T09:12:35;56.70;;;26.93;;
74503;SDS011;62988;55.776;37.544;2024-03-02T09:15:01;59.85;;;27.08;;
74503;SDS011;62988;55.776;37.544;2024-03-02T09:17:26;66.75;;;28.15;;
74503;SDS011;62988;55.776;37.544;2024-03-02T09:19:51;60.93;;;27.57;;
74503;SDS011;62988;55.776;37.544;2024-03-02T09:22:20;55.97;;;26.20;;
74503;SDS011;62988;55.776;37.544;2024-03-02T09:24:46;58.97;;;28.08;;
74503;SDS011;62988;55.776;37.544;2024-03-02T09:27:11;59.50;;;28.35;;
74503;SDS011;62988;55.776;37.544;2024-03-02T09:29:37;60.45;;;26.88;;
74503;SDS011;62988;55.776;37.544;2024-03-02T09:32:02;55.72;;;26.40;;
74503;SDS011;62988;55.776;37.544;2024-03-02T09:34:28;60.88;;;29.02;;
74503;SDS011;62988;55.776;37.544;2024-03-02T09:36:53;63.43;;;29.63;;
74503;SDS011;62988;55.776;37.544;2024-03-02T09:39:18;58.17;;;27.03;;
74503;SDS011;62988;55.776;37.544;2024-03-02T09:41:44;58.92;;;28.27;;
74503;SDS011;62988;55.776;37.544;2024-03-02T09:44:09;59.97;;;25.55;;
74503;SDS011;62988;55.776;37.544;2024-03-02T09:46:35;56.35;;;24.77;;
74503;SDS011;62988;55.776;37.544;2024-03-02T09:49:01;57.13;;;24.05;;
74503;SDS011;62988;55.776;37.544;2024-03-02T09:51:27;56.90;;;25.13;;
74503;SDS011;62988;55.776;37.544;2024-03-02T09:53:52;51.83;;;24.85;;
74503;SDS011;62988;55.776;37.544;2024-03-02T09:56:19;64.20;;;29.75;;
74503;SDS011;62988;55.776;37.544;2024-03-02T09:58:44;59.17;;;26.08;;
74503;SDS011;62988;55.776;37.544;2024-03-02T10:01:10;57.63;;;25.45;;
74503;SDS011;62988;55.776;37.544;2024-03-02T10:03:36;49.17;;;24.00;;
74503;SDS011;62988;55.776;37.544;2024-03-02T10:08:45;46.83;;;19.80;;
74503;SDS011;62988;55.776;37.544;2024-03-02T10:11:11;42.58;;;18.08;;
74503;SDS011;62988;55.776;37.544;2024-03-02T10:13:50;41.65;;;19.00;;
74503;SDS011;62988;55.776;37.544;2024-03-02T10:16:15;40.33;;;17.40;;
74503;SDS011;62988;55.776;37.544;2024-03-02T10:18:42;49.72;;;21.10;;
74503;SDS011;62988;55.776;37.544;2024-03-02T10:21:13;36.72;;;17.40;;
74503;SDS011;62988;55.776;37.544;2024-03-02T10:23:40;46.20;;;18.75;;
74503;SDS011;62988;55.776;37.544;2024-03-02T10:26:16;43.70;;;20.13;;
74503;SDS011;62988;55.776;37.544;2024-03-02T10:28:50;43.30;;;20.02;;
74503;SDS011;62988;55.776;37.544;2024-03-02T10:31:24;41.47;;;18.13;;
74503;SDS011;62988;55.776;37.544;2024-03-02T10:33:53;49.15;;;21.65;;
74503;SDS011;62988;55.776;37.544;2024-03-02T10:36:18;39.25;;;18.30;;
74503;SDS011;62988;55.776;37.544;2024-03-02T10:38:44;40.70;;;19.17;;
74503;SDS011;62988;55.776;37.544;2024-03-02T10:41:10;43.58;;;19.92;;
74503;SDS011;62988;55.776;37.544;2024-03-02T10:43:36;46.80;;;19.73;;
74503;SDS011;62988;55.776;37.544;2024-03-02T10:46:01;45.08;;;20.38;;
74503;SDS011;62988;55.776;37.544;2024-03-02T10:48:27;49.78;;;20.08;;
74503;SDS011;62988;55.776;37.544;2024-03-02T10:50:53;46.63;;;20.83;;
74503;SDS011;62988;55.776;37.544;2024-03-02T10:53:18;48.47;;;22.40;;
74503;SDS011;62988;55.776;37.544;2024-03-02T10:55:44;38.87;;;19.27;;
74503;SDS011;62988;55.776;37.544;2024-03-02T10:58:11;43.40;;;21.10;;
74503;SDS011;62988;55.776;37.544;2024-03-02T11:00:37;49.92;;;21.20;;
74503;SDS011;62988;55.776;37.544;2024-03-02T11:03:06;46.63;;;19.95;;
74503;SDS011;62988;55.776;37.544;2024-03-02T11:05:36;47.25;;;21.85;;
74503;SDS011;62988;55.776;37.544;2024-03-02T11:08:02;50.25;;;23.02;;
74503;SDS011;62988;55.776;37.544;2024-03-02T11:10:53;51.78;;;20.75;;
74503;SDS011;62988;55.776;37.544;2024-03-02T11:13:16;44.85;;;20.45;;
74503;SDS011;62988;55.776;37.544;2024-03-02T11:15:45;49.30;;;22.73;;
74503;SDS011;62988;55.776;37.544;2024-03-02T11:18:11;50.80;;;23.33;;
74503;SDS011;62988;55.776;37.544;2024-03-02T11:20:39;49.78;;;23.40;;
74503;SDS011;62988;55.776;37.544;2024-03-02T11:23:06;46.50;;;22.60;;
74503;SDS011;62988;55.776;37.544;2024-03-02T11:25:32;47.50;;;22.63;;
74503;SDS011;62988;55.776;37.544;2024-03-02T11:28:06;44.60;;;20.95;;
74503;SDS011;62988;55.776;37.544;2024-03-02T11:33:00;47.20;;;22.67;;
74503;SDS011;62988;55.776;37.544;2024-03-02T11:35:25;48.60;;;22.42;;
74503;SDS011;62988;55.776;37.544;2024-03-02T11:37:51;44.85;;;20.83;;
74503;SDS011;62988;55.776;37.544;2024-03-02T11:40:21;45.15;;;20.17;;
74503;SDS011;62988;55.776;37.544;2024-03-02T11:42:46;48.25;;;21.45;;
74503;SDS011;62988;55.776;37.544;2024-03-02T11:45:12;44.23;;;20.73;;
74503;SDS011;62988;55.776;37.544;2024-03-02T11:47:41;44.75;;;21.33;;
74503;SDS011;62988;55.776;37.544;2024-03-02T11:50:11;44.88;;;20.25;;
74503;SDS011;62988;55.776;37.544;2024-03-02T11:52:36;47.40;;;20.97;;
74503;SDS011;62988;55.776;37.544;2024-03-02T11:55:03;45.80;;;19.77;;
74503;SDS011;62988;55.776;37.544;2024-03-02T11:57:29;49.63;;;21.13;;
74503;SDS011;62988;55.776;37.544;2024-03-02T11:59:56;52.00;;;21.67;;
74503;SDS011;62988;55.776;37.544;2024-03-02T12:02:23;48.35;;;21.95;;
74503;SDS011;62988;55.776;37.544;2024-03-02T12:04:49;47.67;;;21.53;;
74503;SDS011;62988;55.776;37.544;2024-03-02T12:07:20;49.15;;;21.05;;
74503;SDS011;62988;55.776;37.544;2024-03-02T12:09:49;30.40;;;14.15;;
74503;SDS011;62988;55.776;37.544;2024-03-02T12:12:24;48.15;;;22.10;;
74503;SDS011;62988;55.776;37.544;2024-03-02T12:14:50;42.43;;;20.83;;
74503;SDS011;62988;55.776;37.544;2024-03-02T12:17:15;41.75;;;18.52;;
74503;SDS011;62988;55.776;37.544;2024-03-02T12:19:41;40.40;;;20.63;;
74503;SDS011;62988;55.776;37.544;2024-03-02T12:22:06;41.93;;;19.93;;
74503;SDS011;62988;55.776;37.544;2024-03-02T12:24:31;42.45;;;19.88;;
74503;SDS011;62988;55.776;37.544;2024-03-02T12:26:57;41.23;;;20.33;;
74503;SDS011;62988;55.776;37.544;2024-03-02T12:29:22;47.47;;;20.30;;
74503;SDS011;62988;55.776;37.544;2024-03-02T12:31:49;44.30;;;19.92;;
74503;SDS011;62988;55.776;37.544;2024-03-02T12:34:15;43.45;;;20.63;;
74503;SDS011;62988;55.776;37.544;2024-03-02T12:36:40;47.38;;;20.38;;
74503;SDS011;62988;55.776;37.544;2024-03-02T12:39:07;50.60;;;22.08;;
74503;SDS011;62988;55.776;37.544;2024-03-02T12:41:35;37.67;;;19.30;;
74503;SDS011;62988;55.776;37.544;2024-03-02T12:44:01;40.25;;;20.45;;
74503;SDS011;62988;55.776;37.544;2024-03-02T12:46:26;43.03;;;20.63;;
74503;SDS011;62988;55.776;37.544;2024-03-02T12:48:51;45.63;;;20.43;;
74503;SDS011;62988;55.776;37.544;2024-03-02T12:51:17;40.83;;;19.63;;
74503;SDS011;62988;55.776;37.544;2024-03-02T12:53:42;41.30;;;20.47;;
74503;SDS011;62988;55.776;37.544;2024-03-02T12:56:07;38.30;;;18.80;;
74503;SDS011;62988;55.776;37.544;2024-03-02T12:58:38;40.08;;;19.30;;
74503;SDS011;62988;55.776;37.544;2024-03-02T13:01:07;42.05;;;19.48;;
74503;SDS011;62988;55.776;37.544;2024-03-02T13:03:40;42.78;;;21.30;;
74503;SDS011;62988;55.776;37.544;2024-03-02T13:06:06;41.90;;;19.42;;
74503;SDS011;62988;55.776;37.544;2024-03-02T13:08:31;41.50;;;19.85;;
74503;SDS011;62988;55.776;37.544;2024-03-02T13:10:57;44.00;;;19.77;;
74503;SDS011;62988;55.776;37.544;2024-03-02T13:13:22;40.50;;;18.38;;
74503;SDS011;62988;55.776;37.544;2024-03-02T13:15:48;47.95;;;19.55;;
74503;SDS011;62988;55.776;37.544;2024-03-02T13:18:13;35.85;;;17.50;;
74503;SDS011;62988;55.776;37.544;2024-03-02T13:20:39;45.30;;;18.73;;
74503;SDS011;62988;55.776;37.544;2024-03-02T13:23:05;37.78;;;18.85;;
74503;SDS011;62988;55.776;37.544;2024-03-02T13:25:30;36.35;;;18.33;;
74503;SDS011;62988;55.776;37.544;2024-03-02T13:27:56;37.70;;;16.98;;
74503;SDS011;62988;55.776;37.544;2024-03-02T13:30:22;40.92;;;18.00;;
74503;SDS011;62988;55.776;37.544;2024-03-02T13:32:47;37.90;;;16.17;;
74503;SDS011;62988;55.776;37.544;2024-03-02T13:35:12;36.23;;;16.53;;
74503;SDS011;62988;55.776;37.544;2024-03-02T13:37:38;35.67;;;17.13;;
74503;SDS011;62988;55.776;37.544;2024-03-02T13:40:03;38.67;;;15.87;;
74503;SDS011;62988;55.776;37.544;2024-03-02T13:42:29;37.55;;;15.05;;
74503;SDS011;62988;55.776;37.544;2024-03-02T13:44:55;35.73;;;17.27;;
74503;SDS011;62988;55.776;37.544;2024-03-02T13:47:20;35.47;;;15.13;;
74503;SDS011;62988;55.776;37.544;2024-03-02T13:49:46;37.45;;;15.70;;
74503;SDS011;62988;55.776;37.544;2024-03-02T13:52:13;34.22;;;15.40;;
74503;SDS011;62988;55.776;37.544;2024-03-02T13:54:39;37.80;;;16.45;;
74503;SDS011;62988;55.776;37.544;2024-03-02T13:57:05;38.75;;;16.85;;
74503;SDS011;62988;55.776;37.544;2024-03-02T13:59:30;37.13;;;17.15;;
74503;SDS011;62988;55.776;37.544;2024-03-02T14:01:56;47.63;;;16.97;;
74503;SDS011;62988;55.776;37.544;2024-03-02T14:04:21;37.90;;;16.87;;
74503;SDS011;62988;55.776;37.544;2024-03-02T14:06:46;39.13;;;16.20;;
74503;SDS011;62988;55.776;37.544;2024-03-02T14:09:12;40.38;;;16.75;;
74503;SDS011;62988;55.776;37.544;2024-03-02T14:11:37;41.43;;;15.37;;
74503;SDS011;62988;55.776;37.544;2024-03-02T14:14:03;37.13;;;16.50;;